Aérodrome :
LOGIN :

S'inscrire | Disclaimer

   EN    FR    IT 

 










Légende :    VFR   VFR Marginal   IFR   IFR Intensif   IFR Très Intensif
Visi : 
Plafond : 
>= 8 km
>= 3000ft
5 à 8 km
1000 à 3000 ft
1500m à 5 km
500 à 1000 ft
800 à 1500m
200 à 500 ft
< 800m
< 200 ft
Symboles :   Orages  Brouillard  Fortes neiges  Fortes précipitations  Vent > 20 kt
SIGMETs :   Divers  Orages  Givrage  Turbulence  Onde Orograph.  Cendres Volcan.






- Altitude de l'aérodrome : 424 ft
- Code IATA : QGY


LHPR - Györ Per

DERNIER METAR :
  • 182345Z AUTO VRB01KT CAVOK 21/16 Q1019

METARs EXPIRÉS :
  • 182315Z AUTO 28003KT 250V310 CAVOK 22/16 Q1019
  • 182245Z AUTO 29003KT CAVOK 22/15 Q1019
  • 182215Z AUTO VRB02KT CAVOK 23/15 Q1019
  • 182145Z AUTO VRB01KT CAVOK 23/16 Q1019
  • 182115Z AUTO VRB03KT CAVOK 23/15 Q1019
  • 182045Z AUTO 02004KT CAVOK 23/16 Q1019
  • 182015Z AUTO 02004KT CAVOK 24/16 Q1019
  • 181945Z AUTO 36005KT CAVOK 25/16 Q1019
  • 181915Z AUTO 34005KT 3300 HZ NCD 25/17 Q1019

TAF TAF LHPR
Valide du 18 à 18h jusqu'au 19 à 03h UTC


181715Z 1818/1903 34004KT CAVOK



MET'MAP, la Météo Aéronautique d'un coup d'oeil ! - Copyright ORBIFLY Décembre 2007 - Disclaimer

ORBIFLY MET'MAP TEAM :

Programmation & Développement : Alexandra Zaïnal
Sur une idée originale de : Baudouin d'Aumeries
Soutien technique & logistique : Manuel Goepfert
Assistance : Marc-Olivier Méhu




SOURCES & CREDITS :

   NOAA